createdAt,value
2019-01-09T00:01:04.443Z,88.54
2019-01-09T00:03:35.107Z,88.57
2019-01-09T00:06:05.801Z,88.30
2019-01-09T00:08:36.653Z,88.54
2019-01-09T00:11:09.162Z,88.10
2019-01-09T00:13:39.744Z,88.41
2019-01-09T00:16:13.371Z,88.28
2019-01-09T00:18:44.231Z,88.11
2019-01-09T00:21:16.162Z,87.70
2019-01-09T00:23:47.021Z,87.77
2019-01-09T00:26:17.659Z,88.23
2019-01-09T00:28:56.446Z,88.38
2019-01-09T00:31:27.161Z,87.73
2019-01-09T00:33:57.647Z,87.85
2019-01-09T00:36:28.423Z,88.10
2019-01-09T00:38:59.280Z,88.15
2019-01-09T00:41:29.555Z,87.71
2019-01-09T00:44:01.548Z,88.03
2019-01-09T00:46:32.285Z,88.01
2019-01-09T00:49:02.906Z,88.18
2019-01-09T00:51:33.542Z,87.84
2019-01-09T00:54:04.137Z,88.17
2019-01-09T00:56:34.829Z,88.30
2019-01-09T00:59:05.465Z,88.17
2019-01-09T01:01:36.090Z,88.11
2019-01-09T01:04:29.323Z,87.93
2019-01-09T01:07:18.082Z,88.53
2019-01-09T01:10:08.700Z,88.27
2019-01-09T01:13:08.524Z,88.56
2019-01-09T01:15:42.440Z,88.17
2019-01-09T01:18:46.994Z,88.40
2019-01-09T01:21:40.370Z,88.26
2019-01-09T01:31:18.416Z,88.50
2019-01-09T01:34:01.271Z,88.52
2019-01-09T01:36:38.602Z,88.19
2019-01-09T01:39:20.872Z,88.25
2019-01-09T01:41:54.424Z,88.37
2019-01-09T01:44:34.237Z,88.30
2019-01-09T01:47:16.832Z,88.44
2019-01-09T01:50:22.666Z,88.22
2019-01-09T01:52:59.348Z,88.21
2019-01-09T01:55:39.009Z,87.95
2019-01-09T01:58:18.698Z,87.98
2019-01-09T02:00:52.558Z,88.00
2019-01-09T02:03:32.446Z,88.05
2019-01-09T02:06:06.534Z,87.79
2019-01-09T02:08:55.157Z,88.25
2019-01-09T02:11:37.441Z,88.06
2019-01-09T02:14:14.462Z,88.37
2019-01-09T02:16:53.930Z,88.13
2019-01-09T02:19:33.456Z,88.47
2019-01-09T02:22:26.713Z,88.19
2019-01-09T02:25:03.392Z,88.33
2019-01-09T02:27:36.903Z,88.59
2019-01-09T02:30:33.194Z,88.53
2019-01-09T02:33:03.737Z,88.43
2019-01-09T02:35:35.938Z,88.53
2019-01-09T02:38:06.205Z,88.47
2019-01-09T02:40:36.762Z,88.54
2019-01-09T02:43:07.296Z,88.40
2019-01-09T02:45:37.909Z,88.17
2019-01-09T02:48:08.473Z,88.61
2019-01-09T02:50:39.262Z,88.33
2019-01-09T02:53:11.365Z,88.49
2019-01-09T02:55:41.663Z,88.40
2019-01-09T02:58:12.233Z,88.12
2019-01-09T03:00:43.120Z,88.07
2019-01-09T03:03:13.805Z,87.89
2019-01-09T03:05:44.516Z,87.97
2019-01-09T03:08:15.151Z,88.05
2019-01-09T03:10:45.453Z,88.04
2019-01-09T03:13:16.135Z,88.37
2019-01-09T03:15:46.842Z,88.56
2019-01-09T03:18:17.355Z,87.93
2019-01-09T03:20:48.018Z,88.14
2019-01-09T03:23:18.632Z,87.92
2019-01-09T03:25:49.264Z,87.88
2019-01-09T03:28:19.892Z,88.17
2019-01-09T03:30:50.412Z,87.66
2019-01-09T03:33:20.940Z,87.67
2019-01-09T03:35:51.585Z,87.80
2019-01-09T03:38:24.977Z,87.79
2019-01-09T03:40:55.506Z,88.14
2019-01-09T03:43:26.181Z,87.94
2019-01-09T03:45:56.762Z,87.82
2019-01-09T03:48:27.416Z,87.85
2019-01-09T03:50:58.045Z,87.82
2019-01-09T03:53:28.760Z,87.91
2019-01-09T03:55:59.546Z,87.76
2019-01-09T03:58:31.825Z,87.92
2019-01-09T04:01:03.347Z,87.71
2019-01-09T04:03:34.024Z,87.41
2019-01-09T04:06:04.602Z,87.55
2019-01-09T04:08:35.926Z,87.43
2019-01-09T04:11:06.646Z,87.65
2019-01-09T04:13:37.421Z,87.27
2019-01-09T04:16:08.148Z,87.21
2019-01-09T04:18:38.417Z,87.39
2019-01-09T04:21:09.006Z,87.25
2019-01-09T04:23:39.617Z,87.31
2019-01-09T04:26:10.167Z,87.39
2019-01-09T04:28:40.697Z,87.33
2019-01-09T04:31:12.630Z,87.12
2019-01-09T04:33:43.325Z,87.39
2019-01-09T04:36:13.919Z,87.38
2019-01-09T04:38:44.649Z,87.32
2019-01-09T04:41:15.195Z,87.61
2019-01-09T04:43:45.797Z,87.38
2019-01-09T04:46:16.447Z,87.45
2019-01-09T04:48:47.075Z,87.61
2019-01-09T04:51:17.625Z,87.20
2019-01-09T04:53:48.573Z,87.40
2019-01-09T04:56:19.329Z,87.28
2019-01-09T04:58:49.582Z,87.81
2019-01-09T05:01:20.130Z,87.79
2019-01-09T05:03:50.333Z,87.63
2019-01-09T05:06:22.340Z,87.70
2019-01-09T05:08:52.953Z,87.89
2019-01-09T05:11:23.610Z,87.62
2019-01-09T05:13:54.349Z,87.67
2019-01-09T05:16:25.070Z,87.44
2019-01-09T05:18:55.800Z,87.57
2019-01-09T05:21:26.410Z,87.65
2019-01-09T05:23:57.224Z,87.58
2019-01-09T05:26:27.787Z,87.56
2019-01-09T05:28:58.427Z,87.78
2019-01-09T05:31:32.043Z,87.75
2019-01-09T05:34:02.668Z,87.92
2019-01-09T05:36:33.294Z,87.60
2019-01-09T05:39:05.098Z,87.69
2019-01-09T05:41:35.743Z,87.71
2019-01-09T05:44:06.464Z,87.78
2019-01-09T05:46:37.140Z,87.59
2019-01-09T05:49:07.803Z,87.57
2019-01-09T05:51:38.414Z,87.49
2019-01-09T05:54:09.058Z,87.58
2019-01-09T05:56:39.669Z,87.51
2019-01-09T05:59:10.197Z,87.66
2019-01-09T06:01:40.832Z,87.55
2019-01-09T06:04:11.404Z,87.51
2019-01-09T06:06:42.111Z,87.35
2019-01-09T06:09:12.721Z,87.73
2019-01-09T06:11:43.351Z,87.86
2019-01-09T06:14:14.397Z,88.14
2019-01-09T06:16:45.025Z,88.09
2019-01-09T06:19:15.583Z,88.37
2019-01-09T06:21:46.357Z,88.32
2019-01-09T06:24:17.026Z,88.45
2019-01-09T06:26:47.313Z,88.88
2019-01-09T06:29:17.569Z,88.74
2019-01-09T06:31:48.211Z,88.97
2019-01-09T06:34:18.836Z,89.09
2019-01-09T06:36:49.575Z,89.27
2019-01-09T06:39:20.219Z,89.11
2019-01-09T06:41:50.955Z,89.27
2019-01-09T06:44:22.814Z,89.53
2019-01-09T06:46:53.833Z,89.25
2019-01-09T06:49:26.946Z,89.28
2019-01-09T06:51:58.286Z,89.15
2019-01-09T06:54:28.855Z,89.68
2019-01-09T06:56:59.445Z,89.36
2019-01-09T06:59:29.653Z,89.57
2019-01-09T07:02:00.413Z,89.53
2019-01-09T07:07:36.025Z,89.61
2019-01-09T07:10:02.984Z,89.40
2019-01-09T07:12:35.369Z,89.52
2019-01-09T07:15:11.788Z,89.48
2019-01-09T07:17:39.649Z,89.49
2019-01-09T07:20:10.481Z,89.51
2019-01-09T07:22:42.849Z,89.84
2019-01-09T07:25:13.347Z,89.90
2019-01-09T07:27:44.200Z,89.80
2019-01-09T07:30:20.161Z,90.17
2019-01-09T07:32:55.101Z,90.07
2019-01-09T07:35:25.745Z,89.72
2019-01-09T07:37:56.470Z,89.89
2019-01-09T07:40:27.000Z,89.87
2019-01-09T07:43:00.503Z,89.86
2019-01-09T07:45:31.576Z,89.94
2019-01-09T07:48:02.258Z,89.99
2019-01-09T07:50:34.856Z,89.93
2019-01-09T07:53:05.939Z,90.03
2019-01-09T07:55:36.610Z,89.72
2019-01-09T07:58:07.241Z,89.90
2019-01-09T08:00:38.164Z,90.22
2019-01-09T08:03:11.075Z,89.97
2019-01-09T08:05:43.316Z,89.97
2019-01-09T08:08:20.107Z,89.80
2019-01-09T08:10:50.764Z,89.70
2019-01-09T08:13:21.479Z,90.04
2019-01-09T08:15:52.016Z,89.99
2019-01-09T08:18:22.340Z,90.20
2019-01-09T08:20:52.845Z,90.01
2019-01-09T08:23:23.400Z,90.13
2019-01-09T08:25:53.930Z,90.23
2019-01-09T08:28:24.482Z,90.13
2019-01-09T08:30:54.946Z,90.22
2019-01-09T08:33:25.606Z,90.01
2019-01-09T08:35:56.133Z,90.21
2019-01-09T08:38:27.152Z,90.22
2019-01-09T08:40:58.008Z,90.15
2019-01-09T08:43:28.259Z,90.16
2019-01-09T08:45:59.000Z,90.28
2019-01-09T08:48:32.773Z,90.20
2019-01-09T08:51:03.672Z,90.18
2019-01-09T08:53:34.484Z,90.17
2019-01-09T08:56:07.151Z,90.36
2019-01-09T08:58:37.777Z,90.17
2019-01-09T09:01:08.417Z,90.29
2019-01-09T09:03:39.027Z,90.20
2019-01-09T09:06:11.537Z,90.09
2019-01-09T09:08:42.885Z,90.50
2019-01-09T09:11:13.505Z,90.33
2019-01-09T09:13:44.219Z,90.57
2019-01-09T09:16:16.516Z,90.48
2019-01-09T09:18:47.122Z,90.32
2019-01-09T09:21:17.757Z,90.24
2019-01-09T09:23:48.405Z,90.08
2019-01-09T09:26:18.740Z,89.80
2019-01-09T09:28:49.359Z,90.18
2019-01-09T09:31:21.469Z,90.18
2019-01-09T09:33:52.460Z,90.03
2019-01-09T09:36:24.632Z,89.89
2019-01-09T09:38:54.920Z,90.01
2019-01-09T09:41:29.082Z,90.06
2019-01-09T09:43:59.938Z,90.03
2019-01-09T09:46:30.646Z,89.70
2019-01-09T09:49:01.472Z,89.92
2019-01-09T09:51:32.102Z,89.58
2019-01-09T09:54:02.829Z,89.91
2019-01-09T09:56:36.666Z,89.77
2019-01-09T09:59:07.412Z,89.72
2019-01-09T10:01:40.886Z,89.37
2019-01-09T10:04:11.486Z,89.46
2019-01-09T10:06:41.668Z,89.59
2019-01-09T10:09:12.254Z,89.58
2019-01-09T10:11:42.545Z,89.65
2019-01-09T10:14:13.208Z,89.38
2019-01-09T10:16:45.318Z,89.46
2019-01-09T10:19:15.906Z,89.16
2019-01-09T10:21:46.620Z,89.07
2019-01-09T10:24:16.906Z,89.18
2019-01-09T10:26:50.926Z,89.03
2019-01-09T10:29:21.502Z,88.97
2019-01-09T10:31:52.165Z,89.66
2019-01-09T10:34:22.862Z,88.23
2019-01-09T10:36:53.171Z,88.39
2019-01-09T10:39:23.989Z,88.10
2019-01-09T10:41:54.791Z,88.26
2019-01-09T10:44:26.368Z,88.44
2019-01-09T10:46:57.069Z,88.17
2019-01-09T10:49:27.677Z,88.23
2019-01-09T10:52:00.132Z,88.01
2019-01-09T10:54:30.975Z,88.33
2019-01-09T10:57:01.984Z,88.27
2019-01-09T10:59:32.738Z,88.37
2019-01-09T11:02:06.525Z,88.35
2019-01-09T11:04:37.341Z,88.28
2019-01-09T11:07:07.972Z,87.92
2019-01-09T11:09:38.959Z,88.27
2019-01-09T11:12:09.636Z,88.21
2019-01-09T11:14:41.466Z,88.02
2019-01-09T11:17:11.818Z,87.85
2019-01-09T11:19:45.130Z,87.64
2019-01-09T11:22:16.218Z,87.41
2019-01-09T11:24:48.046Z,87.70
2019-01-09T11:27:18.850Z,87.28
2019-01-09T11:29:49.615Z,87.20
2019-01-09T11:32:22.411Z,87.32
2019-01-09T11:34:52.725Z,87.00
2019-01-09T11:37:23.361Z,86.96
2019-01-09T11:39:54.551Z,87.25
2019-01-09T11:42:25.316Z,87.19
2019-01-09T11:44:56.151Z,87.22
2019-01-09T11:47:27.383Z,87.12
2019-01-09T11:49:58.126Z,86.85
2019-01-09T11:52:28.762Z,86.98
2019-01-09T11:54:59.531Z,86.89
2019-01-09T11:57:29.919Z,87.01
2019-01-09T12:00:02.121Z,86.98
2019-01-09T12:02:34.445Z,87.20
2019-01-09T12:05:07.745Z,87.12
2019-01-09T12:07:39.502Z,86.95
2019-01-09T12:13:07.295Z,87.07
2019-01-09T12:15:39.028Z,87.31
2019-01-09T12:18:09.587Z,87.58
2019-01-09T12:20:39.893Z,87.44
2019-01-09T12:23:13.584Z,87.95
2019-01-09T12:25:43.866Z,87.95
2019-01-09T12:28:19.581Z,87.58
2019-01-09T12:30:50.322Z,87.63
2019-01-09T12:33:21.066Z,88.06
2019-01-09T12:35:51.785Z,87.94
2019-01-09T12:38:22.519Z,87.59
2019-01-09T12:40:53.240Z,87.80
2019-01-09T12:43:23.928Z,87.77
2019-01-09T12:45:54.376Z,87.77
2019-01-09T12:48:27.200Z,87.64
2019-01-09T12:50:57.824Z,87.90
2019-01-09T12:53:33.794Z,87.73
2019-01-09T12:56:00.818Z,87.75
2019-01-09T12:58:33.099Z,87.76
2019-01-09T13:01:03.819Z,87.53
2019-01-09T13:03:34.489Z,87.53
2019-01-09T13:06:06.817Z,87.30
2019-01-09T13:08:43.510Z,87.01
2019-01-09T13:11:14.274Z,87.02
2019-01-09T13:13:44.911Z,87.03
2019-01-09T13:16:15.614Z,86.61
2019-01-09T13:18:47.923Z,86.74
2019-01-09T13:21:18.197Z,86.40
2019-01-09T13:23:48.853Z,86.67
2019-01-09T13:26:21.094Z,86.38
2019-01-09T13:28:51.450Z,86.54
2019-01-09T13:31:22.259Z,86.33
2019-01-09T13:33:52.900Z,86.56
2019-01-09T13:36:23.625Z,86.20
2019-01-09T13:38:54.411Z,85.70
2019-01-09T13:41:27.748Z,85.87
2019-01-09T13:43:58.619Z,85.68
2019-01-09T13:46:31.068Z,85.63
2019-01-09T13:49:01.703Z,85.71
2019-01-09T13:51:33.988Z,85.58
2019-01-09T13:54:04.630Z,85.39
2019-01-09T13:56:36.793Z,85.37
2019-01-09T13:59:07.525Z,85.13
2019-01-09T14:01:42.503Z,84.99
2019-01-09T14:04:13.286Z,84.67
2019-01-09T14:06:44.397Z,84.80
2019-01-09T14:09:19.082Z,84.33
2019-01-09T14:11:49.795Z,84.46
2019-01-09T14:14:20.410Z,84.46
2019-01-09T14:16:51.146Z,84.60
2019-01-09T14:19:21.876Z,84.44
2019-01-09T14:21:54.078Z,84.42
2019-01-09T14:24:26.416Z,84.42
2019-01-09T14:26:57.182Z,84.24
2019-01-09T14:29:27.818Z,84.39
2019-01-09T14:31:58.231Z,84.07
2019-01-09T14:34:32.909Z,84.48
2019-01-09T14:37:03.203Z,84.33
2019-01-09T14:39:37.530Z,84.52
2019-01-09T14:42:10.931Z,84.62
2019-01-09T14:44:42.062Z,84.37
2019-01-09T14:47:15.821Z,84.42
2019-01-09T14:49:46.474Z,84.45
2019-01-09T14:52:17.211Z,85.05
2019-01-09T14:54:50.521Z,85.29
2019-01-09T14:57:21.183Z,86.01
2019-01-09T14:59:53.603Z,86.60
2019-01-09T15:02:24.397Z,86.51
2019-01-09T15:04:55.206Z,87.39
2019-01-09T15:07:25.920Z,86.97
2019-01-09T15:09:56.755Z,87.02
2019-01-09T15:12:28.672Z,86.98
2019-01-09T15:14:59.364Z,87.04
2019-01-09T15:17:32.476Z,87.02
2019-01-09T15:20:03.290Z,87.23
2019-01-09T15:22:33.987Z,87.19
2019-01-09T15:25:07.768Z,87.25
2019-01-09T15:27:38.082Z,87.33
2019-01-09T15:30:11.956Z,87.41
2019-01-09T15:32:43.045Z,87.52
2019-01-09T15:35:16.648Z,87.63
2019-01-09T15:37:47.420Z,87.76
2019-01-09T15:40:27.290Z,87.62
2019-01-09T15:42:59.346Z,87.74
2019-01-09T15:45:31.026Z,87.64
2019-01-09T15:48:01.778Z,88.23
2019-01-09T15:50:32.452Z,87.99
2019-01-09T15:53:03.283Z,88.00
2019-01-09T15:55:33.912Z,88.09
2019-01-09T15:58:04.597Z,88.03
2019-01-09T16:00:37.862Z,88.04
2019-01-09T16:03:08.518Z,88.09
2019-01-09T16:05:39.229Z,87.64
2019-01-09T16:08:09.970Z,87.92
2019-01-09T16:10:40.579Z,87.91
2019-01-09T16:13:10.945Z,88.17
2019-01-09T16:15:41.519Z,88.22
2019-01-09T16:18:11.857Z,88.16
2019-01-09T16:20:42.487Z,88.31
2019-01-09T16:23:13.321Z,88.28
2019-01-09T16:25:43.947Z,88.62
2019-01-09T16:28:14.616Z,88.60
2019-01-09T16:30:48.246Z,88.69
2019-01-09T16:33:18.569Z,88.60
2019-01-09T16:35:49.138Z,88.60
2019-01-09T16:38:22.594Z,88.92
2019-01-09T16:40:53.159Z,88.75
2019-01-09T16:43:23.797Z,88.76
2019-01-09T16:45:54.001Z,88.86
2019-01-09T16:48:24.874Z,88.79
2019-01-09T16:50:55.813Z,88.76
2019-01-09T16:53:26.431Z,88.84
2019-01-09T16:55:57.164Z,88.97
2019-01-09T16:58:28.092Z,88.88
2019-01-09T17:00:58.668Z,88.82
2019-01-09T17:03:29.103Z,89.26
2019-01-09T17:05:59.727Z,89.14
2019-01-09T17:08:30.328Z,89.22
2019-01-09T17:11:00.641Z,89.32
2019-01-09T17:13:31.716Z,89.03
2019-01-09T17:16:04.813Z,89.07
2019-01-09T17:18:35.535Z,88.82
2019-01-09T17:21:06.169Z,88.90
2019-01-09T17:23:36.882Z,89.10
2019-01-09T17:26:07.522Z,89.04
2019-01-09T17:28:38.253Z,88.78
2019-01-09T17:31:08.769Z,88.82
2019-01-09T17:33:39.427Z,88.86
2019-01-09T17:36:11.009Z,88.85
2019-01-09T17:38:41.799Z,89.19
2019-01-09T17:41:12.380Z,88.90
2019-01-09T17:43:44.504Z,89.24
2019-01-09T17:46:15.438Z,89.24
2019-01-09T17:48:46.097Z,89.24
2019-01-09T17:51:16.703Z,89.14
2019-01-09T17:53:47.431Z,89.06
2019-01-09T17:56:21.442Z,89.51
2019-01-09T17:58:52.179Z,89.04
2019-01-09T18:01:22.923Z,89.06
2019-01-09T18:03:53.488Z,89.44
2019-01-09T18:06:24.485Z,89.09
2019-01-09T18:08:55.220Z,89.19
2019-01-09T18:11:25.883Z,89.24
2019-01-09T18:13:56.597Z,89.26
2019-01-09T18:16:27.258Z,89.33
2019-01-09T18:18:58.255Z,89.39
2019-01-09T18:21:28.889Z,89.06
2019-01-09T18:23:59.624Z,89.29
2019-01-09T18:26:30.370Z,89.46
2019-01-09T18:29:01.078Z,89.34
2019-01-09T18:31:43.819Z,89.37
2019-01-09T18:34:15.533Z,89.01
2019-01-09T18:37:13.442Z,88.89
2019-01-09T18:39:53.134Z,89.25
2019-01-09T18:42:51.249Z,89.44
2019-01-09T18:45:27.740Z,89.51
2019-01-09T18:48:21.900Z,89.50
2019-01-09T18:51:01.039Z,89.61
2019-01-09T18:53:31.281Z,89.65
2019-01-09T18:56:01.585Z,90.04
2019-01-09T18:58:31.948Z,89.47
2019-01-09T19:01:02.655Z,89.03
2019-01-09T19:03:33.297Z,89.12
2019-01-09T19:06:04.006Z,89.19
2019-01-09T19:08:34.975Z,89.58
2019-01-09T19:11:07.852Z,89.61
2019-01-09T19:13:38.949Z,89.94
2019-01-09T19:16:20.057Z,89.46
2019-01-09T19:18:54.191Z,89.31
2019-01-09T19:21:27.597Z,89.50
2019-01-09T19:23:58.424Z,89.56
2019-01-09T19:26:29.149Z,89.64
2019-01-09T19:28:59.796Z,90.01
2019-01-09T19:31:30.428Z,89.51
2019-01-09T19:34:01.268Z,89.62
2019-01-09T19:36:33.516Z,89.51
2019-01-09T19:39:14.439Z,89.64
2019-01-09T19:41:45.040Z,89.43
2019-01-09T19:44:16.237Z,89.71
2019-01-09T19:46:46.891Z,89.54
2019-01-09T19:49:19.190Z,90.11
2019-01-09T19:51:49.872Z,90.01
2019-01-09T19:54:20.508Z,90.09
2019-01-09T19:56:51.679Z,89.78
2019-01-09T19:59:22.319Z,89.63
2019-01-09T20:01:53.065Z,89.64
2019-01-09T20:04:38.027Z,89.36
2019-01-09T20:07:08.721Z,89.43
2019-01-09T20:09:41.000Z,89.49
2019-01-09T20:12:11.683Z,89.92
2019-01-09T20:14:44.288Z,89.60
2019-01-09T20:17:17.942Z,90.03
2019-01-09T20:19:48.697Z,89.89
2019-01-09T20:22:22.770Z,90.32
2019-01-09T20:24:55.194Z,89.77
2019-01-09T20:27:26.905Z,90.10
2019-01-09T20:29:58.838Z,90.43
2019-01-09T20:32:29.725Z,90.05
2019-01-09T20:35:01.333Z,89.63
2019-01-09T20:37:32.208Z,89.87
2019-01-09T20:40:03.424Z,89.73
2019-01-09T20:42:34.509Z,89.72
2019-01-09T20:45:09.649Z,89.59
2019-01-09T20:47:40.445Z,89.46
2019-01-09T20:50:20.658Z,89.70
2019-01-09T20:52:52.699Z,89.90
2019-01-09T20:55:24.003Z,89.16
2019-01-09T20:58:00.575Z,89.20
2019-01-09T21:00:30.521Z,89.31
2019-01-09T21:03:04.251Z,89.28
2019-01-09T21:05:40.158Z,89.54
2019-01-09T21:08:13.326Z,89.68
2019-01-09T21:10:45.889Z,89.38
2019-01-09T21:13:16.812Z,89.63
2019-01-09T21:15:47.670Z,89.81
2019-01-09T21:18:18.110Z,88.86
2019-01-09T21:20:48.812Z,89.52
2019-01-09T21:23:19.551Z,89.29
2019-01-09T21:25:51.206Z,88.86
2019-01-09T21:28:22.135Z,88.58
2019-01-09T21:30:55.399Z,88.94
2019-01-09T21:33:26.021Z,88.67
2019-01-09T21:35:56.740Z,89.00
2019-01-09T21:38:28.003Z,89.02
2019-01-09T21:40:58.936Z,88.72
2019-01-09T21:43:29.754Z,89.20
2019-01-09T21:46:00.649Z,89.44
2019-01-09T21:48:31.939Z,88.89
2019-01-09T21:51:02.985Z,89.09
2019-01-09T21:53:34.019Z,89.35
2019-01-09T21:56:06.546Z,89.32
2019-01-09T21:58:37.378Z,89.70
2019-01-09T22:01:17.287Z,89.99
2019-01-09T22:03:48.175Z,89.48
2019-01-09T22:06:20.859Z,89.38
2019-01-09T22:08:55.422Z,89.39
2019-01-09T22:11:26.110Z,89.37
2019-01-09T22:13:57.067Z,89.80
2019-01-09T22:16:39.460Z,89.82
2019-01-09T22:19:12.524Z,89.46
2019-01-09T22:21:43.093Z,89.41
2019-01-09T22:24:13.828Z,89.57
2019-01-09T22:26:46.340Z,89.40
2019-01-09T22:29:17.115Z,89.69
2019-01-09T22:31:50.779Z,89.17
2019-01-09T22:34:24.747Z,89.52
2019-01-09T22:36:55.478Z,89.44
2019-01-09T22:39:26.094Z,89.18
2019-01-09T22:41:59.597Z,89.37
2019-01-09T22:44:30.500Z,89.10
2019-01-09T22:47:01.039Z,89.16
2019-01-09T22:49:31.794Z,89.34
2019-01-09T22:52:06.360Z,89.34
2019-01-09T22:54:43.088Z,89.52
2019-01-09T22:57:13.844Z,89.36
2019-01-09T22:59:44.238Z,89.08
2019-01-09T23:02:15.707Z,89.08
2019-01-09T23:04:46.758Z,89.10
2019-01-09T23:07:21.280Z,89.28
2019-01-09T23:10:01.059Z,89.37
2019-01-09T23:12:30.720Z,89.14
2019-01-09T23:15:01.480Z,89.61
2019-01-09T23:17:31.970Z,89.78
2019-01-09T23:20:02.521Z,89.58
2019-01-09T23:22:33.139Z,88.71
2019-01-09T23:25:04.378Z,89.16
2019-01-09T23:27:34.907Z,88.90
2019-01-09T23:30:10.400Z,89.21
2019-01-09T23:32:40.983Z,88.88
2019-01-09T23:35:13.152Z,89.21
2019-01-09T23:37:43.680Z,89.37
2019-01-09T23:40:15.956Z,89.21
2019-01-09T23:42:46.593Z,89.14
2019-01-09T23:45:17.321Z,89.09
2019-01-09T23:47:47.958Z,89.24
2019-01-09T23:50:18.567Z,88.86
2019-01-09T23:52:49.110Z,89.33
2019-01-09T23:55:19.747Z,89.70
2019-01-09T23:57:50.388Z,89.69
